Time;durP1;ratioP1;P1;durP2;ratioP2;P2;SDS_P1;SDS_P2;PMS_P1;PMS_P2;Temp;Humidity;BMP_temperature;BMP_pressure;BME280_temperature;BME280_humidity;BME280_pressure;Samples;Min_cycle;Max_cycle;Signal;HPM_P1;HPM_P2
2022/07/20 00:02:13;;;;;;;1.47;0.90;;;27.20;57.80;;;;;;6095159;23;20449;-76
2022/07/20 00:04:41;;;;;;;1.47;0.80;;;27.20;58.00;;;;;;6098911;23;20426;-76
2022/07/20 00:07:08;;;;;;;1.47;0.90;;;27.20;58.40;;;;;;6094322;23;20453;-76
2022/07/20 00:12:20;;;;;;;1.47;0.80;;;27.10;58.60;;;;;;6092314;23;20474;-76
2022/07/20 00:14:48;;;;;;;1.43;0.83;;;27.10;58.60;;;;;;6092354;23;20505;-76
2022/07/20 00:17:16;;;;;;;1.47;0.90;;;27.10;58.60;;;;;;6095800;23;20453;-77
2022/07/20 00:19:43;;;;;;;1.43;0.90;;;27.00;58.80;;;;;;6099308;23;20430;-77
2022/07/20 00:22:10;;;;;;;1.47;0.90;;;27.00;59.20;;;;;;6092726;23;20426;-76
2022/07/20 00:24:38;;;;;;;1.43;0.83;;;27.00;59.20;;;;;;6093370;23;20486;-76
2022/07/20 00:27:05;;;;;;;1.43;0.80;;;27.00;59.40;;;;;;6094034;23;20881;-75
2022/07/20 00:29:33;;;;;;;1.47;0.90;;;27.00;59.30;;;;;;6104570;23;20498;-78
2022/07/20 00:32:00;;;;;;;1.43;0.90;;;26.90;59.50;;;;;;6096243;23;20454;-75
2022/07/20 00:34:27;;;;;;;1.47;0.80;;;26.90;59.60;;;;;;6103093;23;20501;-75
2022/07/20 00:36:54;;;;;;;1.43;0.80;;;26.90;59.20;;;;;;6092097;23;20457;-75
2022/07/20 00:39:21;;;;;;;1.43;0.80;;;26.90;59.50;;;;;;6103885;23;20434;-75
2022/07/20 00:41:48;;;;;;;1.50;0.90;;;26.90;59.30;;;;;;6089743;23;20456;-75
2022/07/20 00:44:15;;;;;;;1.50;0.80;;;26.90;59.60;;;;;;6104358;23;20703;-75
2022/07/20 00:46:45;;;;;;;1.47;1.00;;;26.80;59.50;;;;;;6088428;23;20532;-76
2022/07/20 00:49:13;;;;;;;1.43;0.90;;;26.80;59.60;;;;;;6104506;23;20430;-75
2022/07/20 00:51:42;;;;;;;1.43;0.90;;;26.80;59.90;;;;;;6088870;23;20837;-76
2022/07/20 00:54:10;;;;;;;1.43;0.90;;;26.80;59.50;;;;;;6105149;23;20423;-76
2022/07/20 00:56:37;;;;;;;1.60;1.23;;;26.80;59.60;;;;;;6087871;23;20468;-76
2022/07/20 00:59:06;;;;;;;1.43;0.80;;;26.80;59.50;;;;;;6106335;23;20427;-77
2022/07/20 01:01:33;;;;;;;1.43;0.80;;;26.80;60.00;;;;;;6087601;23;20469;-75
2022/07/20 01:04:02;;;;;;;1.43;0.90;;;26.80;60.00;;;;;;6106349;23;20429;-75
2022/07/20 01:06:30;;;;;;;1.43;0.80;;;26.80;59.50;;;;;;6091796;23;20446;-76
2022/07/20 01:08:57;;;;;;;1.43;0.90;;;26.80;59.80;;;;;;6092529;23;20688;-75
2022/07/20 01:11:24;;;;;;;1.43;0.90;;;26.80;59.60;;;;;;6085564;23;20449;-75
2022/07/20 01:13:51;;;;;;;1.50;1.00;;;26.70;59.30;;;;;;6109091;23;20429;-76
2022/07/20 01:16:19;;;;;;;1.50;1.00;;;26.70;59.90;;;;;;6085076;23;20457;-75
2022/07/20 01:18:46;;;;;;;1.50;1.10;;;26.60;60.00;;;;;;6110938;23;20442;-76
2022/07/20 01:21:14;;;;;;;1.43;0.90;;;26.60;59.90;;;;;;6084700;23;20446;-76
2022/07/20 01:23:41;;;;;;;1.40;0.87;;;26.60;60.10;;;;;;6110612;23;20847;-73
2022/07/20 01:26:09;;;;;;;1.47;0.80;;;26.50;60.20;;;;;;6082390;23;20505;-75
2022/07/20 01:28:37;;;;;;;1.43;0.80;;;26.50;60.60;;;;;;6110495;23;20442;-75
2022/07/20 01:31:04;;;;;;;1.43;0.90;;;26.40;60.20;;;;;;6093657;23;20430;-75
2022/07/20 01:36:11;;;;;;;1.47;0.80;;;26.40;60.20;;;;;;6077597;23;20423;-76
2022/07/20 01:38:40;;;;;;;1.40;0.90;;;26.40;60.10;;;;;;6111616;23;20498;-76
2022/07/20 01:41:07;;;;;;;1.47;0.90;;;26.30;60.00;;;;;;6085180;23;20439;-76
2022/07/20 01:43:34;;;;;;;1.47;0.80;;;26.30;60.30;;;;;;6114537;23;20426;-75
2022/07/20 01:46:02;;;;;;;1.43;0.80;;;26.30;60.50;;;;;;6083378;23;20446;-76
2022/07/20 01:48:29;;;;;;;1.47;0.90;;;26.30;60.80;;;;;;6115566;23;20465;-77
2022/07/20 01:50:56;;;;;;;1.43;0.80;;;26.30;60.30;;;;;;6090864;23;20430;-76
2022/07/20 01:53:23;;;;;;;1.40;0.90;;;26.30;60.90;;;;;;6116822;23;20423;-75
2022/07/20 01:55:54;;;;;;;1.50;1.00;;;26.30;60.40;;;;;;6093031;23;20419;-77
2022/07/20 01:58:21;;;;;;;1.43;0.90;;;26.30;60.50;;;;;;6117624;23;20474;-77
2022/07/20 02:00:49;;;;;;;1.50;0.90;;;26.30;61.10;;;;;;6081560;23;20423;-76
2022/07/20 02:03:16;;;;;;;1.43;0.80;;;26.30;60.80;;;;;;6117827;23;20537;-75
2022/07/20 02:05:44;;;;;;;1.40;0.87;;;26.30;60.90;;;;;;6094064;23;20759;-75
2022/07/20 02:08:11;;;;;;;1.40;0.83;;;26.30;61.00;;;;;;6078336;23;20785;-76
2022/07/20 02:10:41;;;;;;;1.67;0.97;;;26.30;60.80;;;;;;6094264;23;20426;-75
2022/07/20 02:13:10;;;;;;;1.47;0.87;;;26.30;61.20;;;;;;6102893;23;20446;-75
2022/07/20 02:18:22;;;;;;;1.47;0.90;;;26.20;61.20;;;;;;6078331;23;20441;-77
2022/07/20 02:20:49;;;;;;;1.40;0.80;;;26.20;61.40;;;;;;6081948;23;20422;-76
2022/07/20 02:23:16;;;;;;;1.47;0.90;;;26.20;61.30;;;;;;6116467;23;20708;-75
2022/07/20 02:25:43;;;;;;;1.47;0.90;;;26.20;61.10;;;;;;6094210;23;20426;-76
2022/07/20 02:28:12;;;;;;;1.40;0.80;;;26.20;61.40;;;;;;6078285;23;20446;-75
2022/07/20 02:30:42;;;;;;;1.47;0.87;;;26.20;61.60;;;;;;6095818;23;20617;-76
2022/07/20 02:33:10;;;;;;;1.47;0.87;;;26.20;61.80;;;;;;6102036;23;20466;-75
2022/07/20 02:35:37;;;;;;;1.40;0.90;;;26.30;61.50;;;;;;6104063;23;20481;-75
2022/07/20 02:38:04;;;;;;;1.40;0.80;;;26.30;61.80;;;;;;6097271;23;20445;-77
2022/07/20 02:40:32;;;;;;;1.40;0.80;;;26.30;61.70;;;;;;6097058;23;20449;-77
2022/07/20 02:42:59;;;;;;;1.43;0.80;;;26.30;61.50;;;;;;6105920;23;20445;-76
2022/07/20 02:45:28;;;;;;;1.43;0.83;;;26.30;61.10;;;;;;6107031;23;20441;-76
2022/07/20 02:48:02;;;;;;;1.47;0.90;;;26.20;61.10;;;;;;6107277;23;20800;-76
2022/07/20 02:50:30;;;;;;;1.40;0.83;;;26.20;61.00;;;;;;6097608;23;20441;-76
2022/07/20 02:52:57;;;;;;;1.40;0.80;;;26.10;61.60;;;;;;6109768;23;20449;-75
2022/07/20 02:55:25;;;;;;;1.70;1.33;;;26.00;61.90;;;;;;6097608;23;20426;-76
2022/07/20 02:57:52;;;;;;;1.47;0.90;;;26.00;62.00;;;;;;6098732;23;20438;-75
2022/07/20 03:00:23;;;;;;;1.40;0.90;;;25.90;62.20;;;;;;6097085;23;20429;-75
2022/07/20 03:02:54;;;;;;;1.40;0.80;;;25.90;62.40;;;;;;6106610;23;20796;-76
2022/07/20 03:05:21;;;;;;;1.40;0.80;;;25.80;62.50;;;;;;6097488;23;20422;-76
2022/07/20 03:07:49;;;;;;;1.43;0.80;;;25.80;62.50;;;;;;6107119;23;20533;-76
2022/07/20 03:10:17;;;;;;;1.47;0.83;;;25.80;62.40;;;;;;6101783;23;20422;-76
2022/07/20 03:12:44;;;;;;;1.50;1.00;;;25.70;62.70;;;;;;6099527;23;20481;-76
2022/07/20 03:15:14;;;;;;;1.47;0.90;;;25.70;62.40;;;;;;6111436;23;20430;-75
2022/07/20 03:17:46;;;;;;;1.47;0.87;;;25.70;62.30;;;;;;6111084;23;20449;-75
2022/07/20 03:20:19;;;;;;;1.40;0.80;;;25.70;62.30;;;;;;6101178;23;20445;-77
2022/07/20 03:22:46;;;;;;;1.43;0.90;;;25.70;62.30;;;;;;6107292;23;20870;-76
2022/07/20 03:25:14;;;;;;;1.50;1.03;;;25.70;62.10;;;;;;6099344;23;20859;-75
2022/07/20 03:27:41;;;;;;;1.47;0.83;;;25.70;62.40;;;;;;6107976;23;20995;-75
2022/07/20 03:30:09;;;;;;;1.40;0.80;;;25.70;62.60;;;;;;6110787;23;20415;-75
2022/07/20 03:32:37;;;;;;;1.40;0.80;;;25.70;62.30;;;;;;6104282;23;20536;-76
2022/07/20 03:35:07;;;;;;;1.47;0.87;;;25.70;62.10;;;;;;6109966;23;20457;-76
2022/07/20 03:37:36;;;;;;;1.47;0.80;;;25.60;61.80;;;;;;6109479;23;20465;-75
2022/07/20 03:40:05;;;;;;;1.40;0.90;;;25.60;61.70;;;;;;6100014;23;20422;-77
2022/07/20 03:42:32;;;;;;;1.43;0.90;;;25.50;62.20;;;;;;6107165;23;20453;-76
2022/07/20 03:44:59;;;;;;;1.43;0.90;;;25.40;62.60;;;;;;6102385;23;20429;-76
2022/07/20 03:47:26;;;;;;;1.43;0.87;;;25.30;62.90;;;;;;6099590;23;20509;-76
2022/07/20 03:50:01;;;;;;;1.50;1.10;;;25.30;63.00;;;;;;6107749;23;20444;-76
2022/07/20 03:52:28;;;;;;;1.40;0.90;;;25.20;63.90;;;;;;6103774;23;20456;-75
2022/07/20 03:54:57;;;;;;;1.43;0.90;;;25.10;64.30;;;;;;6111628;23;20514;-76
2022/07/20 03:57:24;;;;;;;1.60;1.10;;;25.00;64.30;;;;;;6104059;23;20817;-76
2022/07/20 03:59:58;;;;;;;1.47;0.90;;;24.90;64.50;;;;;;6104121;23;20423;-77
2022/07/20 04:02:28;;;;;;;1.43;0.90;;;24.90;64.60;;;;;;6103872;23;20935;-76
2022/07/20 04:04:58;;;;;;;1.43;0.80;;;24.80;64.70;;;;;;6102010;23;20789;-77
2022/07/20 04:07:26;;;;;;;1.47;0.90;;;24.80;64.30;;;;;;6104700;23;20972;-77
2022/07/20 04:09:53;;;;;;;1.43;0.90;;;24.80;65.10;;;;;;6113268;23;20422;-77
2022/07/20 04:12:25;;;;;;;1.50;0.90;;;24.80;64.70;;;;;;6099571;23;20431;-77
2022/07/20 04:14:55;;;;;;;1.43;0.90;;;24.80;65.90;;;;;;6107755;23;20450;-76
2022/07/20 04:17:23;;;;;;;1.43;0.90;;;24.80;65.40;;;;;;6102137;23;20451;-75
2022/07/20 04:19:53;;;;;;;1.43;0.80;;;24.80;65.40;;;;;;6113420;23;20411;-76
2022/07/20 04:22:28;;;;;;;1.40;0.80;;;24.80;65.60;;;;;;6103991;23;20509;-76
2022/07/20 04:24:55;;;;;;;1.47;0.90;;;24.80;65.70;;;;;;6102964;23;20435;-75
2022/07/20 04:27:25;;;;;;;1.40;0.80;;;24.80;65.40;;;;;;6102979;23;20452;-76
2022/07/20 04:29:56;;;;;;;1.40;0.90;;;24.80;65.40;;;;;;6104579;23;20423;-77
2022/07/20 04:32:23;;;;;;;1.60;1.33;;;24.80;65.70;;;;;;6103669;23;20984;-75
2022/07/20 04:34:51;;;;;;;1.40;0.80;;;24.80;65.50;;;;;;6104867;23;20422;-77
2022/07/20 04:37:19;;;;;;;1.47;0.80;;;24.80;65.40;;;;;;6099618;23;20439;-76
2022/07/20 04:39:47;;;;;;;1.47;0.90;;;24.80;65.40;;;;;;6110230;23;20458;-75
2022/07/20 04:42:14;;;;;;;1.40;0.87;;;24.80;65.40;;;;;;6110271;23;20426;-77
2022/07/20 04:44:43;;;;;;;1.40;0.80;;;24.80;65.60;;;;;;6099533;23;20567;-76
2022/07/20 04:47:19;;;;;;;1.47;0.87;;;24.90;65.70;;;;;;6110034;23;20474;-77
2022/07/20 04:49:47;;;;;;;1.40;0.90;;;24.90;65.60;;;;;;6111580;23;20817;-76
2022/07/20 04:52:14;;;;;;;1.47;0.80;;;24.90;66.00;;;;;;6109086;23;20460;-77
2022/07/20 04:54:42;;;;;;;1.40;0.87;;;25.00;65.90;;;;;;6106849;23;20451;-76
2022/07/20 04:57:12;;;;;;;1.40;0.87;;;25.00;65.90;;;;;;6097845;23;20960;-77
2022/07/20 05:02:24;;;;;;;1.40;0.80;;;25.10;66.40;;;;;;6101047;23;20524;-76
2022/07/20 05:05:05;;;;;;;1.40;0.83;;;25.20;66.40;;;;;;6103551;23;20441;-75
2022/07/20 05:07:42;;;;;;;1.50;0.90;;;25.40;65.90;;;;;;6108685;23;20909;-77
2022/07/20 05:10:13;;;;;;;1.47;0.90;;;25.60;66.40;;;;;;6101484;23;20411;-75
2022/07/20 05:12:43;;;;;;;1.47;0.90;;;25.80;66.70;;;;;;6108518;23;20532;-80
2022/07/20 05:15:13;;;;;;;1.50;0.90;;;25.90;66.40;;;;;;6102668;23;20426;-77
2022/07/20 05:18:00;;;;;;;1.43;0.80;;;26.10;65.70;;;;;;6111496;23;20450;-77
2022/07/20 05:20:28;;;;;;;1.43;0.90;;;26.30;66.20;;;;;;6112043;23;20399;-76
2022/07/20 05:23:06;;;;;;;1.43;0.80;;;26.50;67.30;;;;;;6101325;23;20449;-78
2022/07/20 05:25:39;;;;;;;1.43;0.80;;;26.70;66.70;;;;;;6101308;23;20785;-77
2022/07/20 05:28:08;;;;;;;1.50;0.80;;;26.80;66.90;;;;;;6109383;23;20449;-77
2022/07/20 05:31:08;;;;;;;1.43;0.80;;;27.00;67.10;;;;;;6108577;23;20726;-78
2022/07/20 05:33:40;;;;;;;1.47;0.83;;;27.30;67.50;;;;;;6095195;23;20435;-76
2022/07/20 05:36:10;;;;;;;1.43;0.80;;;27.50;67.10;;;;;;6093473;23;20430;-78
2022/07/20 05:38:38;;;;;;;1.47;0.83;;;27.70;67.00;;;;;;6117621;23;20438;-77
2022/07/20 05:41:06;;;;;;;1.50;0.80;;;27.90;66.70;;;;;;6101907;23;20720;-77
2022/07/20 05:43:33;;;;;;;1.47;0.90;;;28.10;66.70;;;;;;6110290;23;20453;-77
2022/07/20 05:46:01;;;;;;;1.47;0.90;;;28.20;67.20;;;;;;6095884;23;20456;-77
2022/07/20 05:48:33;;;;;;;1.47;0.90;;;28.20;67.80;;;;;;6120689;23;20450;-77
2022/07/20 05:51:03;;;;;;;1.50;0.90;;;28.10;67.30;;;;;;6087407;23;20434;-77
2022/07/20 05:53:30;;;;;;;1.50;0.80;;;28.20;67.90;;;;;;6129638;23;20454;-77
2022/07/20 05:55:57;;;;;;;1.50;0.90;;;28.10;68.30;;;;;;6087537;23;20423;-76
2022/07/20 05:58:38;;;;;;;1.50;1.00;;;28.10;68.00;;;;;;6119311;23;20442;-77
2022/07/20 06:01:06;;;;;;;1.50;0.90;;;28.20;68.90;;;;;;6095242;23;20465;-77
2022/07/20 06:03:36;;;;;;;1.50;0.80;;;28.40;68.40;;;;;;6128569;23;20426;-77
2022/07/20 06:06:06;;;;;;;2.03;1.10;;;28.60;68.20;;;;;;6096287;23;20422;-76
2022/07/20 06:08:33;;;;;;;1.50;0.80;;;28.70;68.40;;;;;;6109471;23;20453;-77
2022/07/20 06:11:00;;;;;;;1.43;0.80;;;28.90;67.70;;;;;;6086985;23;20422;-76
2022/07/20 06:13:27;;;;;;;1.50;1.00;;;29.10;67.60;;;;;;6109983;23;20457;-76
2022/07/20 06:15:55;;;;;;;1.43;0.90;;;29.20;67.50;;;;;;6077711;23;20429;-76
2022/07/20 06:18:22;;;;;;;1.47;0.80;;;29.40;67.30;;;;;;6111586;23;20510;-76
2022/07/20 06:20:49;;;;;;;1.43;0.80;;;29.60;67.20;;;;;;6076978;23;20830;-77
2022/07/20 06:23:18;;;;;;;1.50;0.80;;;29.70;66.70;;;;;;6110231;23;21178;-77
2022/07/20 06:25:45;;;;;;;1.50;1.00;;;29.70;66.80;;;;;;6091200;23;20425;-76
2022/07/20 06:28:12;;;;;;;1.50;0.80;;;29.80;66.90;;;;;;6076638;23;20458;-76
2022/07/20 06:30:39;;;;;;;1.50;1.00;;;30.00;66.40;;;;;;6094623;23;20418;-77
2022/07/20 06:33:07;;;;;;;1.80;1.00;;;30.10;66.40;;;;;;6102242;23;20510;-78
2022/07/20 06:35:36;;;;;;;1.43;0.80;;;30.20;66.00;;;;;;6101960;23;20425;-77
2022/07/20 06:38:03;;;;;;;1.50;1.00;;;30.40;65.80;;;;;;6103622;23;20529;-77
2022/07/20 06:40:32;;;;;;;1.50;1.03;;;30.60;65.30;;;;;;6103717;23;20422;-77
2022/07/20 06:42:59;;;;;;;1.43;0.80;;;30.80;65.00;;;;;;6099809;23;20497;-76
2022/07/20 06:45:26;;;;;;;1.40;0.80;;;31.00;64.90;;;;;;6092648;23;20458;-77
2022/07/20 06:47:53;;;;;;;1.43;0.80;;;31.00;64.90;;;;;;6104203;23;20568;-76
2022/07/20 06:50:20;;;;;;;1.50;0.90;;;30.90;64.60;;;;;;6097056;23;20438;-77
2022/07/20 06:52:47;;;;;;;1.43;0.80;;;30.80;65.00;;;;;;6100438;23;20453;-77
2022/07/20 06:55:14;;;;;;;1.50;0.90;;;30.70;65.20;;;;;;6097451;23;20434;-76
2022/07/20 06:57:45;;;;;;;1.50;1.00;;;30.60;65.10;;;;;;6101386;23;20484;-77
2022/07/20 07:00:14;;;;;;;1.47;0.90;;;30.50;65.20;;;;;;6092262;23;20418;-77
2022/07/20 07:02:41;;;;;;;1.40;0.80;;;30.40;65.80;;;;;;6101470;23;20461;-76
2022/07/20 07:05:10;;;;;;;1.50;1.00;;;30.20;66.10;;;;;;6092964;23;20963;-76
2022/07/20 07:07:37;;;;;;;1.40;0.80;;;30.00;66.80;;;;;;6100472;23;20682;-77
2022/07/20 07:10:05;;;;;;;1.40;0.80;;;29.80;67.90;;;;;;6094597;23;20500;-76
2022/07/20 07:12:34;;;;;;;1.43;0.80;;;29.70;67.60;;;;;;6098441;23;20449;-77
2022/07/20 07:15:02;;;;;;;1.50;1.10;;;29.60;68.60;;;;;;6094254;23;20832;-76
2022/07/20 07:17:30;;;;;;;1.40;0.80;;;29.80;68.70;;;;;;6093425;23;20442;-76
2022/07/20 07:19:58;;;;;;;1.73;1.37;;;29.90;68.10;;;;;;6093764;23;20760;-77
2022/07/20 07:22:25;;;;;;;1.50;1.00;;;29.80;68.10;;;;;;6093872;23;20468;-79
2022/07/20 07:24:52;;;;;;;1.43;0.83;;;29.80;68.40;;;;;;6103630;23;20468;-77
2022/07/20 07:27:19;;;;;;;1.40;0.80;;;30.00;68.30;;;;;;6093100;23;20468;-78
2022/07/20 07:29:45;;;;;;;1.87;1.50;;;30.40;67.20;;;;;;6104364;23;20428;-78
2022/07/20 07:32:14;;;;;;;1.47;0.80;;;30.70;67.10;;;;;;6092892;23;21269;-77
2022/07/20 07:34:41;;;;;;;4.27;3.87;;;30.90;65.70;;;;;;6099226;23;20425;-78
2022/07/20 07:37:08;;;;;;;2.03;1.83;;;31.00;65.80;;;;;;6092318;23;20505;-80
2022/07/20 07:39:35;;;;;;;1.50;0.80;;;31.00;65.60;;;;;;6094757;23;21007;-80
2022/07/20 07:42:04;;;;;;;1.50;1.00;;;31.10;65.10;;;;;;6096900;23;20448;-80
2022/07/20 07:44:31;;;;;;;2.03;1.43;;;31.00;64.90;;;;;;6112254;23;20431;-80
2022/07/20 07:46:58;;;;;;;1.40;0.80;;;31.00;65.20;;;;;;6093261;23;20460;-79
2022/07/20 07:49:26;;;;;;;1.60;1.07;;;30.90;65.20;;;;;;6115307;23;20995;-81
2022/07/20 07:51:53;;;;;;;1.43;0.80;;;30.70;66.10;;;;;;6093573;23;20454;-79
2022/07/20 07:54:19;;;;;;;2.27;1.67;;;30.70;66.30;;;;;;6094085;23;20828;-81
2022/07/20 07:56:46;;;;;;;3.00;2.70;;;30.60;66.90;;;;;;6092895;23;20456;-80
2022/07/20 07:59:16;;;;;;;1.40;0.80;;;30.70;66.00;;;;;;6107290;23;21090;-80
2022/07/20 08:01:43;;;;;;;1.40;0.80;;;30.80;65.90;;;;;;6091185;23;20804;-79
2022/07/20 08:04:10;;;;;;;1.50;0.90;;;30.80;65.30;;;;;;6105418;23;20917;-80
2022/07/20 08:06:38;;;;;;;2.00;1.80;;;30.80;65.70;;;;;;6088861;23;20508;-80
2022/07/20 08:09:05;;;;;;;1.43;0.80;;;30.80;65.70;;;;;;6107858;23;20422;-80
2022/07/20 08:11:33;;;;;;;1.40;0.80;;;30.80;66.10;;;;;;6089534;23;20544;-78
2022/07/20 08:14:02;;;;;;;1.43;0.80;;;30.90;65.80;;;;;;6106529;23;20426;-78
2022/07/20 08:16:31;;;;;;;1.50;1.00;;;30.90;65.50;;;;;;6091383;23;20454;-78
2022/07/20 08:18:58;;;;;;;1.80;1.33;;;30.80;66.50;;;;;;6090262;23;20516;-76
2022/07/20 08:21:27;;;;;;;1.50;0.90;;;30.80;66.50;;;;;;6074882;23;20745;-78
2022/07/20 08:24:11;;;;;;;1.60;1.23;;;30.80;66.80;;;;;;6105713;23;20751;-80
2022/07/20 08:26:49;;;;;;;2.13;1.77;;;30.80;66.50;;;;;;6091749;23;20511;-78
2022/07/20 08:29:17;;;;;;;1.40;0.80;;;30.90;66.20;;;;;;6114900;23;20468;-79
2022/07/20 08:31:44;;;;;;;1.50;1.00;;;31.00;66.00;;;;;;6095530;23;20602;-80
2022/07/20 08:34:11;;;;;;;1.50;1.00;;;31.00;65.90;;;;;;6102517;23;20426;-78
2022/07/20 08:36:39;;;;;;;1.70;1.30;;;31.10;66.60;;;;;;6101787;23;20458;-79
2022/07/20 08:39:38;;;;;;;2.13;0.97;;;31.30;65.40;;;;;;6094181;23;20480;-79
2022/07/20 08:42:10;;;;;;;2.07;1.80;;;31.70;65.00;;;;;;6094079;23;20448;-79
2022/07/20 08:44:43;;;;;;;1.43;0.80;;;31.90;64.70;;;;;;6099957;23;20916;-79
2022/07/20 08:47:16;;;;;;;1.40;0.80;;;32.10;63.30;;;;;;6101647;23;20464;-79
2022/07/20 08:50:12;;;;;;;1.50;0.80;;;32.30;62.70;;;;;;6111761;23;20422;-79
2022/07/20 08:52:43;;;;;;;1.50;1.00;;;32.30;62.60;;;;;;6096935;23;20445;-79
2022/07/20 08:55:19;;;;;;;1.40;0.80;;;32.30;61.90;;;;;;6109550;23;20422;-79
2022/07/20 08:57:59;;;;;;;1.50;0.90;;;32.30;63.50;;;;;;6060954;23;20450;-79
2022/07/20 09:00:36;;;;;;;1.43;0.80;;;32.20;62.90;;;;;;6078863;23;20431;-79
2022/07/20 09:03:06;;;;;;;1.47;0.90;;;32.10;62.90;;;;;;6105287;23;20449;-79
2022/07/20 09:05:43;;;;;;;1.50;0.93;;;31.90;63.20;;;;;;6105858;23;20457;-78
2022/07/20 09:11:04;;;;;;;1.40;0.80;;;31.50;64.30;;;;;;6083060;23;20418;-78
2022/07/20 09:13:45;;;;;;;1.47;0.90;;;31.40;64.80;;;;;;6115231;23;20437;-79
2022/07/20 09:16:12;;;;;;;1.47;0.80;;;31.20;64.80;;;;;;6091344;23;20559;-78
2022/07/20 09:18:40;;;;;;;1.50;1.07;;;31.20;65.00;;;;;;6110518;23;20450;-79
2022/07/20 09:21:09;;;;;;;1.40;0.80;;;31.10;65.50;;;;;;6107216;23;20500;-78
2022/07/20 09:23:58;;;;;;;1.40;0.80;;;31.10;66.20;;;;;;6107343;23;20453;-79
2022/07/20 09:26:27;;;;;;;1.47;0.80;;;31.10;64.90;;;;;;6102401;23;20446;-79
2022/07/20 09:29:00;;;;;;;1.40;0.80;;;31.20;64.80;;;;;;6104059;23;20418;-81
2022/07/20 09:31:30;;;;;;;1.40;0.80;;;31.20;65.90;;;;;;6094357;23;20414;-80
2022/07/20 09:34:22;;;;;;;1.50;0.90;;;31.20;65.60;;;;;;6095602;23;21129;-79
2022/07/20 09:56:26;;;;;;;1.47;0.80;;;32.80;62.50;;;;;;5958583;23;20454;-79
2022/07/20 09:59:08;;;;;;;1.43;0.87;;;33.20;62.70;;;;;;6073089;23;20214;-79
2022/07/20 10:01:39;;;;;;;1.43;0.80;;;33.50;61.70;;;;;;6088509;23;20268;-80
2022/07/20 10:04:18;;;;;;;1.40;0.80;;;33.60;61.10;;;;;;6124240;23;20206;-82
2022/07/20 10:07:11;;;;;;;;;;;;;;;;;;;;;
2022/07/20 10:12:51;;;;;;;1.43;0.80;;;33.80;61.50;;;;;;6094334;23;20232;-80
2022/07/20 10:15:27;;;;;;;1.40;0.80;;;33.80;62.30;;;;;;6101014;23;20587;-80
2022/07/20 10:17:56;;;;;;;2.00;1.00;;;34.00;61.50;;;;;;6106322;23;20266;-79
2022/07/20 10:26:35;;;;;;;1.60;1.40;;;34.50;60.20;;;;;;6090755;23;20213;-80
2022/07/20 10:29:38;;;;;;;1.40;0.80;;;34.20;61.30;;;;;;6109874;23;20170;-81
2022/07/20 10:32:28;;;;;;;1.40;0.90;;;33.90;61.90;;;;;;6102465;23;20296;-79
2022/07/20 10:34:56;;;;;;;1.40;0.90;;;34.00;61.90;;;;;;6112318;23;20344;-80
2022/07/20 10:37:49;;;;;;;1.40;0.80;;;34.10;61.60;;;;;;6094413;23;20237;-80
2022/07/20 10:40:23;;;;;;;1.40;0.80;;;34.30;60.90;;;;;;6106903;23;20241;-81
2022/07/20 11:13:36;;;;;;;1.63;0.90;;;35.80;56.80;;;;;;6041753;23;20207;-80
2022/07/20 11:26:36;;;;;;;1.40;0.80;;;36.30;55.80;;;;;;5905890;23;20209;-81
2022/07/20 11:29:13;;;;;;;1.40;0.80;;;36.30;55.70;;;;;;6116071;23;20206;-81
2022/07/20 11:38:13;;;;;;;1.40;0.80;;;36.50;55.90;;;;;;6051203;23;20214;-81
2022/07/20 11:40:41;;;;;;;1.40;0.80;;;36.60;55.10;;;;;;6103713;23;20237;-79
2022/07/20 11:43:13;;;;;;;1.40;1.00;;;36.70;54.70;;;;;;6100298;23;20244;-78
2022/07/20 11:46:18;;;;;;;1.40;0.80;;;36.80;55.20;;;;;;6103932;23;20198;-80
2022/07/20 12:02:27;;;;;;;1.40;0.80;;;36.70;54.60;;;;;;6032901;23;20180;-81
2022/07/20 12:05:03;;;;;;;1.38;0.80;;;36.70;55.20;;;;;;6045617;23;20589;-81
2022/07/20 12:11:18;;;;;;;1.40;0.80;;;36.80;54.90;;;;;;6113948;23;20542;-80
2022/07/20 12:14:02;;;;;;;1.40;0.88;;;36.70;54.40;;;;;;6047998;23;20207;-80
2022/07/20 12:17:36;;;;;;;1.38;0.80;;;36.80;54.60;;;;;;6099458;23;20244;-80
2022/07/20 12:20:34;;;;;;;1.38;0.80;;;36.90;54.60;;;;;;5938271;23;20219;-80
2022/07/20 12:23:39;;;;;;;1.40;0.98;;;37.00;54.50;;;;;;6098870;23;20246;-79
2022/07/20 12:30:02;;;;;;;1.35;0.85;;;37.10;53.50;;;;;;6079103;23;20186;-80
2022/07/20 12:32:45;;;;;;;1.35;0.80;;;37.00;54.70;;;;;;6091319;23;20547;-79
2022/07/20 12:35:22;;;;;;;1.38;0.80;;;36.90;54.00;;;;;;6097264;23;20186;-78
2022/07/20 12:45:08;;;;;;;;;;;;;;;;;;;;;
2022/07/20 12:54:41;;;;;;;1.40;0.88;;;37.60;53.20;;;;;;5919282;23;20233;-79
2022/07/20 13:00:39;;;;;;;1.40;0.80;;;37.50;53.50;;;;;;6110480;23;20210;-80
2022/07/20 13:03:06;;;;;;;1.30;0.80;;;37.50;52.80;;;;;;6103938;23;20406;-78
2022/07/20 13:05:34;;;;;;;1.40;0.80;;;37.60;52.70;;;;;;6101697;23;20182;-79
2022/07/20 13:08:18;;;;;;;1.40;0.80;;;37.40;52.60;;;;;;6102148;23;20276;-79
2022/07/20 13:10:48;;;;;;;1.38;0.80;;;37.20;53.30;;;;;;6092517;23;20163;-80
2022/07/20 13:13:16;;;;;;;1.77;0.90;;;37.00;53.20;;;;;;6076115;23;20198;-79
2022/07/20 13:15:53;;;;;;;1.40;0.90;;;36.70;54.20;;;;;;6097521;23;20270;-80
2022/07/20 13:18:23;;;;;;;1.40;1.05;;;36.30;55.00;;;;;;6074483;23;20304;-80
2022/07/20 13:21:09;;;;;;;1.40;0.80;;;36.20;55.00;;;;;;6086505;23;20332;-79
2022/07/20 13:26:47;;;;;;;1.38;0.80;;;36.30;54.00;;;;;;6079663;23;20238;-79
2022/07/20 13:29:35;;;;;;;1.40;0.80;;;36.20;54.10;;;;;;6113058;23;20218;-79
2022/07/20 13:32:05;;;;;;;1.40;0.80;;;36.00;53.80;;;;;;6082808;23;20213;-81
2022/07/20 13:34:59;;;;;;;1.40;0.80;;;35.80;54.10;;;;;;6115607;23;20216;-80
2022/07/20 13:37:41;;;;;;;1.92;1.10;;;35.60;54.70;;;;;;6097545;23;20221;-81
2022/07/20 13:40:13;;;;;;;1.40;0.80;;;35.50;55.30;;;;;;6093721;23;20202;-81
2022/07/20 13:43:05;;;;;;;1.40;0.80;;;35.40;55.10;;;;;;6098486;23;20272;-81
2022/07/20 13:46:00;;;;;;;1.40;0.80;;;35.40;55.50;;;;;;6103986;23;20422;-81
2022/07/20 13:48:42;;;;;;;3.00;1.88;;;35.40;54.80;;;;;;6078651;23;20580;-81
2022/07/20 13:51:12;;;;;;;1.40;0.80;;;35.30;56.00;;;;;;6091861;23;20224;-81
2022/07/20 13:54:06;;;;;;;1.40;0.80;;;35.10;56.00;;;;;;6126069;23;20200;-80
2022/07/20 13:56:38;;;;;;;1.40;0.80;;;35.20;56.00;;;;;;6092892;23;20210;-82
2022/07/20 13:59:43;;;;;;;1.40;0.80;;;35.50;56.20;;;;;;6109397;23;20182;-80
2022/07/20 14:02:51;;;;;;;1.38;0.80;;;35.80;55.40;;;;;;6106152;23;20281;-80
2022/07/20 14:05:34;;;;;;;1.40;0.80;;;36.20;55.50;;;;;;6102973;23;20209;-80
2022/07/20 14:11:01;;;;;;;1.40;0.80;;;36.50;55.20;;;;;;6071751;23;20195;-80
2022/07/20 14:14:00;;;;;;;1.40;0.80;;;36.70;54.10;;;;;;6126493;23;20196;-83
2022/07/20 14:37:21;;;;;;;1.40;0.90;;;37.30;54.10;;;;;;5921819;24;20213;-79
2022/07/20 14:40:02;;;;;;;1.40;0.80;;;36.90;54.20;;;;;;6016743;23;20199;-80
2022/07/20 14:42:38;;;;;;;1.40;0.80;;;36.70;54.20;;;;;;6040350;23;20227;-80
2022/07/20 14:45:34;;;;;;;1.35;0.80;;;36.20;54.50;;;;;;6106620;23;20178;-81
2022/07/20 14:48:12;;;;;;;1.40;0.80;;;35.80;55.30;;;;;;6105542;23;20205;-81
2022/07/20 14:54:03;;;;;;;1.63;1.10;;;35.40;55.90;;;;;;6043168;23;20198;-82
2022/07/20 14:57:03;;;;;;;1.40;0.80;;;35.30;55.90;;;;;;6100457;23;20221;-81
2022/07/20 14:59:41;;;;;;;1.40;0.80;;;35.30;56.30;;;;;;6111111;23;20887;-81
2022/07/20 15:02:28;;;;;;;1.42;0.85;;;35.30;56.00;;;;;;6098956;23;20241;-80
2022/07/20 15:05:21;;;;;;;1.40;0.80;;;35.30;56.20;;;;;;6098622;23;20174;-81
2022/07/20 15:08:06;;;;;;;1.40;0.80;;;35.50;55.70;;;;;;6102695;23;20244;-81
2022/07/20 15:10:42;;;;;;;1.40;0.80;;;35.60;55.30;;;;;;6103053;23;20626;-81
2022/07/20 15:13:36;;;;;;;1.40;0.80;;;35.60;55.00;;;;;;6100616;23;20961;-81
2022/07/20 15:16:04;;;;;;;1.50;1.15;;;35.60;55.80;;;;;;6088533;23;20209;-79
2022/07/20 15:18:32;;;;;;;1.40;0.80;;;35.50;56.10;;;;;;6122300;23;20257;-80
2022/07/20 15:24:31;;;;;;;1.40;0.80;;;35.60;56.10;;;;;;6090123;23;20186;-82
2022/07/20 15:27:08;;;;;;;1.40;0.80;;;35.40;56.30;;;;;;6021472;23;20243;-81
2022/07/20 15:29:58;;;;;;;1.40;0.80;;;35.50;56.60;;;;;;6112299;23;20221;-83
2022/07/20 15:32:52;;;;;;;1.40;0.80;;;35.70;55.70;;;;;;6110233;23;20182;-81
2022/07/20 15:38:22;;;;;;;1.40;0.80;;;35.50;55.90;;;;;;6030918;23;20191;-80
2022/07/20 15:40:50;;;;;;;1.40;0.80;;;35.70;56.80;;;;;;6094270;23;20202;-82
2022/07/20 15:43:30;;;;;;;1.40;0.80;;;35.90;55.60;;;;;;6132526;23;20229;-82
2022/07/20 15:46:08;;;;;;;;;;;;;;;;;;;;;
2022/07/20 15:48:38;;;;;;;1.40;0.80;;;36.10;55.70;;;;;;6130975;23;20261;-79
2022/07/20 15:51:11;;;;;;;1.80;1.33;;;35.90;55.10;;;;;;6098424;23;20210;-80
2022/07/20 15:53:44;;;;;;;1.40;0.80;;;35.80;55.60;;;;;;6127448;23;20181;-83
2022/07/20 15:56:11;;;;;;;1.38;0.80;;;35.80;55.50;;;;;;6095891;23;20493;-80
2022/07/20 15:58:43;;;;;;;1.38;0.80;;;36.00;54.60;;;;;;6124333;23;20190;-80
2022/07/20 16:01:17;;;;;;;1.40;0.80;;;35.90;54.90;;;;;;6095440;23;20254;-81
2022/07/20 16:03:47;;;;;;;1.40;0.80;;;35.90;55.70;;;;;;6128141;23;20655;-81